sensor_id;sensor_type;location;lat;lon;timestamp;pressure;altitude;pressure_sealevel;temperature;humidity
59987;BME280;46181;51.498;5.392;2024-01-25T00:02:00;102734.7;;;13.45;58.0459
59987;BME280;46181;51.498;5.392;2024-01-25T00:06:30;102748.5;;;13.36;58.12305
59987;BME280;46181;51.498;5.392;2024-01-25T00:11:01;102729.3;;;13.26;58.15625
59987;BME280;46181;51.498;5.392;2024-01-25T00:15:31;102726.7;;;13.07;58.25488
59987;BME280;46181;51.498;5.392;2024-01-25T00:20:00;102731;;;12.9;58.44727
59987;BME280;46181;51.498;5.392;2024-01-25T00:24:30;102725.7;;;12.79;58.71582
59987;BME280;46181;51.498;5.392;2024-01-25T00:29:00;102746;;;12.71;58.85156
59987;BME280;46181;51.498;5.392;2024-01-25T00:33:30;102742.3;;;12.62;59.02148
59987;BME280;46181;51.498;5.392;2024-01-25T00:38:01;102727.3;;;12.53;59.07617
59987;BME280;46181;51.498;5.392;2024-01-25T00:42:31;102732;;;12.42;59.1084
59987;BME280;46181;51.498;5.392;2024-01-25T00:47:01;102733.8;;;12.33;59.27637
59987;BME280;46181;51.498;5.392;2024-01-25T00:51:31;102736.4;;;12.24;59.42188
59987;BME280;46181;51.498;5.392;2024-01-25T00:56:01;102740.7;;;12.19;59.5498
59987;BME280;46181;51.498;5.392;2024-01-25T01:00:32;102749.2;;;12.13;59.79102
59987;BME280;46181;51.498;5.392;2024-01-25T01:05:01;102751.9;;;12.11;59.88965
59987;BME280;46181;51.498;5.392;2024-01-25T01:09:30;102747;;;12.06;59.94043
59987;BME280;46181;51.498;5.392;2024-01-25T01:14:00;102753.3;;;12.01;59.98926
59987;BME280;46181;51.498;5.392;2024-01-25T01:18:30;102752.4;;;11.96;60.10645
59987;BME280;46181;51.498;5.392;2024-01-25T01:23:00;102755.6;;;11.9;60.12012
59987;BME280;46181;51.498;5.392;2024-01-25T01:27:30;102764.2;;;11.84;60.22559
59987;BME280;46181;51.498;5.392;2024-01-25T01:32:00;102765.8;;;11.77;60.22656
59987;BME280;46181;51.498;5.392;2024-01-25T01:36:30;102756.4;;;11.69;60.22656
59987;BME280;46181;51.498;5.392;2024-01-25T01:41:00;102770;;;11.62;60.28418
59987;BME280;46181;51.498;5.392;2024-01-25T01:45:31;102764.5;;;11.52;60.40723
59987;BME280;46181;51.498;5.392;2024-01-25T01:50:00;102773;;;11.46;60.52148
59987;BME280;46181;51.498;5.392;2024-01-25T01:54:30;102778.4;;;11.41;60.61523
59987;BME280;46181;51.498;5.392;2024-01-25T01:59:01;102784.5;;;11.33;60.73047
59987;BME280;46181;51.498;5.392;2024-01-25T02:03:30;102803.6;;;11.3;60.72461
59987;BME280;46181;51.498;5.392;2024-01-25T02:08:00;102804.6;;;11.23;60.76074
59987;BME280;46181;51.498;5.392;2024-01-25T02:12:30;102799;;;11.16;60.84082
59987;BME280;46181;51.498;5.392;2024-01-25T02:17:00;102811.2;;;11.1;60.88867
59987;BME280;46181;51.498;5.392;2024-01-25T02:21:30;102823.3;;;11.05;61.01855
59987;BME280;46181;51.498;5.392;2024-01-25T02:26:00;102832.1;;;11.01;61.03516
59987;BME280;46181;51.498;5.392;2024-01-25T02:30:30;102825.3;;;10.96;61.12793
59987;BME280;46181;51.498;5.392;2024-01-25T02:35:00;102828.7;;;10.92;61.03223
59987;BME280;46181;51.498;5.392;2024-01-25T02:39:30;102834.6;;;10.85;61.09082
59987;BME280;46181;51.498;5.392;2024-01-25T02:44:00;102838.9;;;10.78;61.0918
59987;BME280;46181;51.498;5.392;2024-01-25T02:48:31;102834.5;;;10.72;61.10547
59987;BME280;46181;51.498;5.392;2024-01-25T02:53:01;102832.4;;;10.66;61.18652
59987;BME280;46181;51.498;5.392;2024-01-25T02:57:30;102833.8;;;10.62;61.23926
59987;BME280;46181;51.498;5.392;2024-01-25T03:02:00;102831.1;;;10.58;61.25391
59987;BME280;46181;51.498;5.392;2024-01-25T03:06:30;102829.7;;;10.53;61.28125
59987;BME280;46181;51.498;5.392;2024-01-25T03:11:00;102826;;;10.48;61.36523
59987;BME280;46181;51.498;5.392;2024-01-25T03:15:30;102822;;;10.45;61.37305
59987;BME280;46181;51.498;5.392;2024-01-25T03:20:00;102822.9;;;10.39;61.47656
59987;BME280;46181;51.498;5.392;2024-01-25T03:24:30;102813.3;;;10.38;61.51953
59987;BME280;46181;51.498;5.392;2024-01-25T03:29:00;102817.1;;;10.33;61.5
59987;BME280;46181;51.498;5.392;2024-01-25T03:33:30;102819.2;;;10.26;61.48047
59987;BME280;46181;51.498;5.392;2024-01-25T03:38:00;102825;;;10.21;61.51855
59987;BME280;46181;51.498;5.392;2024-01-25T03:42:30;102829.9;;;10.16;61.53418
59987;BME280;46181;51.498;5.392;2024-01-25T03:47:00;102830.2;;;10.11;61.58301
59987;BME280;46181;51.498;5.392;2024-01-25T03:51:30;102831.8;;;10.07;61.58691
59987;BME280;46181;51.498;5.392;2024-01-25T03:56:00;102836.8;;;10.03;61.56055
59987;BME280;46181;51.498;5.392;2024-01-25T04:00:31;102837.5;;;9.97;61.67578
59987;BME280;46181;51.498;5.392;2024-01-25T04:05:00;102833.6;;;9.94;61.68262
59987;BME280;46181;51.498;5.392;2024-01-25T04:09:30;102837.5;;;9.89;61.85449
59987;BME280;46181;51.498;5.392;2024-01-25T04:14:00;102845.5;;;9.87;61.68359
59987;BME280;46181;51.498;5.392;2024-01-25T04:18:30;102846.7;;;9.8;61.63965
59987;BME280;46181;51.498;5.392;2024-01-25T04:23:00;102863;;;9.75;61.73438
59987;BME280;46181;51.498;5.392;2024-01-25T04:27:30;102851.2;;;9.75;61.84473
59987;BME280;46181;51.498;5.392;2024-01-25T04:32:00;102840.6;;;9.68;61.76855
59987;BME280;46181;51.498;5.392;2024-01-25T04:36:30;102848;;;9.64;61.83105
59987;BME280;46181;51.498;5.392;2024-01-25T04:41:00;102835.6;;;9.6;61.70117
59987;BME280;46181;51.498;5.392;2024-01-25T04:45:30;102834.1;;;9.55;61.72656
59987;BME280;46181;51.498;5.392;2024-01-25T04:50:00;102833.9;;;9.48;61.7627
59987;BME280;46181;51.498;5.392;2024-01-25T04:54:30;102830.5;;;9.45;61.80273
59987;BME280;46181;51.498;5.392;2024-01-25T04:59:00;102833.1;;;9.41;61.86523
59987;BME280;46181;51.498;5.392;2024-01-25T05:03:30;102841.4;;;9.38;61.88184
59987;BME280;46181;51.498;5.392;2024-01-25T05:08:00;102840.1;;;9.36;61.9707
59987;BME280;46181;51.498;5.392;2024-01-25T05:12:30;102836.2;;;9.36;61.95898
59987;BME280;46181;51.498;5.392;2024-01-25T05:17:00;102833.4;;;9.32;61.96387
59987;BME280;46181;51.498;5.392;2024-01-25T05:21:30;102822.8;;;9.28;61.94629
59987;BME280;46181;51.498;5.392;2024-01-25T05:26:00;102809.4;;;9.23;61.88379
59987;BME280;46181;51.498;5.392;2024-01-25T05:30:30;102832.4;;;9.18;61.84277
59987;BME280;46181;51.498;5.392;2024-01-25T05:35:00;102844;;;9.14;61.84863
59987;BME280;46181;51.498;5.392;2024-01-25T05:39:30;102842.7;;;9.11;61.88965
59987;BME280;46181;51.498;5.392;2024-01-25T05:44:00;102834.4;;;9.08;61.95215
59987;BME280;46181;51.498;5.392;2024-01-25T05:48:30;102844.9;;;9.05;62.00391
59987;BME280;46181;51.498;5.392;2024-01-25T05:53:00;102846.4;;;9.02;62.07715
59987;BME280;46181;51.498;5.392;2024-01-25T05:57:30;102855.1;;;9;62.17676
59987;BME280;46181;51.498;5.392;2024-01-25T06:02:00;102854.7;;;8.99;62.0957
59987;BME280;46181;51.498;5.392;2024-01-25T06:06:30;102842.8;;;8.96;62.29395
59987;BME280;46181;51.498;5.392;2024-01-25T06:11:00;102845;;;8.97;62.29395
59987;BME280;46181;51.498;5.392;2024-01-25T06:15:30;102850.7;;;8.94;62.29102
59987;BME280;46181;51.498;5.392;2024-01-25T06:20:00;102858.6;;;8.91;62.28613
59987;BME280;46181;51.498;5.392;2024-01-25T06:24:30;102855.3;;;8.85;62.13379
59987;BME280;46181;51.498;5.392;2024-01-25T06:29:00;102872.3;;;8.81;62.07031
59987;BME280;46181;51.498;5.392;2024-01-25T06:33:30;102877.9;;;8.78;62.04395
59987;BME280;46181;51.498;5.392;2024-01-25T06:38:00;102875.5;;;8.76;62.19727
59987;BME280;46181;51.498;5.392;2024-01-25T06:42:30;102864.7;;;8.71;62.21289
59987;BME280;46181;51.498;5.392;2024-01-25T06:47:00;102867;;;8.69;62.27734
59987;BME280;46181;51.498;5.392;2024-01-25T06:51:30;102872.3;;;8.67;62.21875
59987;BME280;46181;51.498;5.392;2024-01-25T06:56:00;102862.7;;;8.65;62.18262
59987;BME280;46181;51.498;5.392;2024-01-25T07:00:31;102873.7;;;8.58;62.1377
59987;BME280;46181;51.498;5.392;2024-01-25T07:05:00;102875.5;;;8.55;62.15625
59987;BME280;46181;51.498;5.392;2024-01-25T07:09:30;102873.3;;;8.51;62.16211
59987;BME280;46181;51.498;5.392;2024-01-25T07:14:00;102868.4;;;8.5;62.25
59987;BME280;46181;51.498;5.392;2024-01-25T07:18:30;102876.2;;;8.49;62.23828
59987;BME280;46181;51.498;5.392;2024-01-25T07:23:00;102882;;;8.5;62.28418
59987;BME280;46181;51.498;5.392;2024-01-25T07:27:30;102880.6;;;8.51;62.30762
59987;BME280;46181;51.498;5.392;2024-01-25T07:32:01;102884.6;;;8.52;62.4541
59987;BME280;46181;51.498;5.392;2024-01-25T07:36:30;102893.3;;;8.6;62.68945
59987;BME280;46181;51.498;5.392;2024-01-25T07:41:01;102896;;;8.71;62.85059
59987;BME280;46181;51.498;5.392;2024-01-25T07:45:30;102887.3;;;8.85;62.83984
59987;BME280;46181;51.498;5.392;2024-01-25T07:50:00;102890.4;;;8.99;62.82422
59987;BME280;46181;51.498;5.392;2024-01-25T07:54:31;102881.6;;;9.1;62.7627
59987;BME280;46181;51.498;5.392;2024-01-25T07:59:01;102882.2;;;9.22;62.68945
59987;BME280;46181;51.498;5.392;2024-01-25T08:03:30;102882.3;;;9.31;62.66895
59987;BME280;46181;51.498;5.392;2024-01-25T08:08:01;102893.5;;;9.39;62.6582
59987;BME280;46181;51.498;5.392;2024-01-25T08:12:30;102902.4;;;9.48;62.64941
59987;BME280;46181;51.498;5.392;2024-01-25T08:17:01;102897.8;;;9.54;62.62305
59987;BME280;46181;51.498;5.392;2024-01-25T08:21:31;102904.6;;;9.61;62.67871
59987;BME280;46181;51.498;5.392;2024-01-25T08:26:00;102903.1;;;9.71;62.72656
59987;BME280;46181;51.498;5.392;2024-01-25T08:30:30;102871.4;;;9.83;62.74414
59987;BME280;46181;51.498;5.392;2024-01-25T08:35:00;102863;;;9.93;62.75879
59987;BME280;46181;51.498;5.392;2024-01-25T08:39:30;102867.5;;;10.05;62.67285
59987;BME280;46181;51.498;5.392;2024-01-25T08:44:00;102880;;;10.12;62.63867
59987;BME280;46181;51.498;5.392;2024-01-25T08:48:30;102899.8;;;10.2;62.62793
59987;BME280;46181;51.498;5.392;2024-01-25T08:53:01;102901.7;;;10.3;62.6416
59987;BME280;46181;51.498;5.392;2024-01-25T08:57:30;102899.3;;;10.38;62.59766
59987;BME280;46181;51.498;5.392;2024-01-25T09:02:00;102897.3;;;10.46;62.61035
59987;BME280;46181;51.498;5.392;2024-01-25T09:06:30;102890.6;;;10.53;62.58594
59987;BME280;46181;51.498;5.392;2024-01-25T09:11:01;102894.8;;;10.57;62.68066
59987;BME280;46181;51.498;5.392;2024-01-25T09:15:30;102899;;;10.63;62.71289
59987;BME280;46181;51.498;5.392;2024-01-25T09:20:01;102908.2;;;10.68;62.68652
59987;BME280;46181;51.498;5.392;2024-01-25T09:24:30;102911.3;;;10.82;62.80664
59987;BME280;46181;51.498;5.392;2024-01-25T09:29:00;102891.4;;;10.93;62.82422
59987;BME280;46181;51.498;5.392;2024-01-25T09:33:31;102902.8;;;11.06;62.61719
59987;BME280;46181;51.498;5.392;2024-01-25T09:38:01;102907.8;;;11.15;62.58398
59987;BME280;46181;51.498;5.392;2024-01-25T09:42:31;102890;;;11.28;62.74902
59987;BME280;46181;51.498;5.392;2024-01-25T09:47:00;102907.3;;;11.47;62.6875
59987;BME280;46181;51.498;5.392;2024-01-25T09:51:33;102917.9;;;11.54;62.59473
59987;BME280;46181;51.498;5.392;2024-01-25T09:56:06;102911.4;;;11.64;62.60938
59987;BME280;46181;51.498;5.392;2024-01-25T10:00:31;102900.8;;;11.79;62.47363
59987;BME280;46181;51.498;5.392;2024-01-25T10:05:01;102897.5;;;11.9;62.41016
59987;BME280;46181;51.498;5.392;2024-01-25T10:09:31;102892.5;;;11.99;62.5127
59987;BME280;46181;51.498;5.392;2024-01-25T10:14:01;102882.8;;;12.13;62.625
59987;BME280;46181;51.498;5.392;2024-01-25T10:18:31;102884.8;;;12.3;62.63672
59987;BME280;46181;51.498;5.392;2024-01-25T10:23:01;102874.1;;;12.42;62.5752
59987;BME280;46181;51.498;5.392;2024-01-25T10:27:31;102885.3;;;12.55;62.41309
59987;BME280;46181;51.498;5.392;2024-01-25T10:32:01;102882.8;;;12.61;62.43262
59987;BME280;46181;51.498;5.392;2024-01-25T10:36:31;102860.6;;;12.72;62.5625
59987;BME280;46181;51.498;5.392;2024-01-25T10:41:02;102858.7;;;12.84;62.53223
59987;BME280;46181;51.498;5.392;2024-01-25T10:45:31;102840.5;;;12.98;62.55371
59987;BME280;46181;51.498;5.392;2024-01-25T10:50:01;102837;;;13.03;62.28906
59987;BME280;46181;51.498;5.392;2024-01-25T10:54:31;102832.4;;;13.05;62.30273
59987;BME280;46181;51.498;5.392;2024-01-25T10:59:01;102850.3;;;13.08;62.38672
59987;BME280;46181;51.498;5.392;2024-01-25T11:03:34;102834;;;13.17;62.43359
59987;BME280;46181;51.498;5.392;2024-01-25T11:08:01;102829.5;;;13.3;62.36133
59987;BME280;46181;51.498;5.392;2024-01-25T11:12:31;102809.3;;;13.39;62.1377
59987;BME280;46181;51.498;5.392;2024-01-25T11:17:14;102805.6;;;13.42;62.11914
59987;BME280;46181;51.498;5.392;2024-01-25T11:21:49;102807;;;13.34;62.28711
59987;BME280;46181;51.498;5.392;2024-01-25T11:26:03;102803.6;;;13.46;62.07715
59987;BME280;46181;51.498;5.392;2024-01-25T11:30:31;102783;;;13.52;61.98633
59987;BME280;46181;51.498;5.392;2024-01-25T11:35:11;102784.6;;;13.54;62.04492
59987;BME280;46181;51.498;5.392;2024-01-25T11:39:31;102790.8;;;13.67;61.62207
59987;BME280;46181;51.498;5.392;2024-01-25T11:44:01;102778.8;;;13.74;61.59668
59987;BME280;46181;51.498;5.392;2024-01-25T11:48:31;102781.3;;;13.81;61.40234
59987;BME280;46181;51.498;5.392;2024-01-25T11:53:01;102778.5;;;13.86;61.28516
59987;BME280;46181;51.498;5.392;2024-01-25T11:57:31;102765.8;;;13.9;61.1543
59987;BME280;46181;51.498;5.392;2024-01-25T12:02:01;102772.2;;;13.97;61.18848
59987;BME280;46181;51.498;5.392;2024-01-25T12:06:31;102769.2;;;14.06;60.95117
59987;BME280;46181;51.498;5.392;2024-01-25T12:11:10;102763.7;;;14.01;60.75098
59987;BME280;46181;51.498;5.392;2024-01-25T12:15:31;102757;;;14.12;60.33496
59987;BME280;46181;51.498;5.392;2024-01-25T12:20:03;102715.7;;;14.12;60.16504
59987;BME280;46181;51.498;5.392;2024-01-25T12:24:32;102716.7;;;14.17;60.0459
59987;BME280;46181;51.498;5.392;2024-01-25T12:29:03;102712.3;;;14.22;59.99707
59987;BME280;46181;51.498;5.392;2024-01-25T12:33:31;102704.6;;;14.27;59.73145
59987;BME280;46181;51.498;5.392;2024-01-25T12:38:01;102712.8;;;14.34;59.64941
59987;BME280;46181;51.498;5.392;2024-01-25T12:42:31;102722.9;;;14.44;59.34473
59987;BME280;46181;51.498;5.392;2024-01-25T12:47:01;102708.9;;;14.51;59.05957
59987;BME280;46181;51.498;5.392;2024-01-25T12:51:31;102709.7;;;14.56;58.95215
59987;BME280;46181;51.498;5.392;2024-01-25T12:56:01;102696.9;;;14.57;58.6582
59987;BME280;46181;51.498;5.392;2024-01-25T13:00:31;102685;;;14.56;58.42969
59987;BME280;46181;51.498;5.392;2024-01-25T13:05:01;102683.2;;;14.54;58.40527
59987;BME280;46181;51.498;5.392;2024-01-25T13:09:31;102688.4;;;14.54;58.04199
59987;BME280;46181;51.498;5.392;2024-01-25T13:14:01;102677.8;;;14.49;58.29688
59987;BME280;46181;51.498;5.392;2024-01-25T13:18:31;102672.8;;;14.5;58.21777
59987;BME280;46181;51.498;5.392;2024-01-25T13:23:01;102668;;;14.45;58.16602
59987;BME280;46181;51.498;5.392;2024-01-25T13:27:31;102667;;;14.43;57.90137
59987;BME280;46181;51.498;5.392;2024-01-25T13:32:01;102662.8;;;14.4;58.0459
59987;BME280;46181;51.498;5.392;2024-01-25T13:36:31;102657.6;;;14.37;58.09766
59987;BME280;46181;51.498;5.392;2024-01-25T13:41:01;102648.1;;;14.31;58.11328
59987;BME280;46181;51.498;5.392;2024-01-25T13:45:31;102641.9;;;14.28;58.29004
59987;BME280;46181;51.498;5.392;2024-01-25T13:50:01;102638.7;;;14.21;58.0791
59987;BME280;46181;51.498;5.392;2024-01-25T13:54:31;102638.3;;;14.17;58.27637
59987;BME280;46181;51.498;5.392;2024-01-25T13:59:01;102618.3;;;14.09;58.35742
59987;BME280;46181;51.498;5.392;2024-01-25T14:03:31;102605;;;13.94;58.50684
59987;BME280;46181;51.498;5.392;2024-01-25T14:08:01;102605;;;13.77;58.94824
59987;BME280;46181;51.498;5.392;2024-01-25T14:12:31;102596.6;;;13.67;59.27734
59987;BME280;46181;51.498;5.392;2024-01-25T14:17:01;102599.7;;;13.56;59.62402
59987;BME280;46181;51.498;5.392;2024-01-25T14:21:31;102591.2;;;13.48;59.8623
59987;BME280;46181;51.498;5.392;2024-01-25T14:26:01;102592.2;;;13.42;60.28516
59987;BME280;46181;51.498;5.392;2024-01-25T14:30:31;102589.4;;;13.41;60.53125
59987;BME280;46181;51.498;5.392;2024-01-25T14:35:01;102578.4;;;13.39;60.7666
59987;BME280;46181;51.498;5.392;2024-01-25T14:39:31;102574.1;;;13.37;61.00195
59987;BME280;46181;51.498;5.392;2024-01-25T14:44:01;102577;;;13.37;61.2959
59987;BME280;46181;51.498;5.392;2024-01-25T14:48:31;102574.8;;;13.43;61.45215
59987;BME280;46181;51.498;5.392;2024-01-25T14:53:01;102570;;;13.45;61.6582
59987;BME280;46181;51.498;5.392;2024-01-25T14:57:31;102565.1;;;13.47;61.68359
59987;BME280;46181;51.498;5.392;2024-01-25T15:02:01;102566.2;;;13.47;61.77441
59987;BME280;46181;51.498;5.392;2024-01-25T15:06:31;102565.2;;;13.43;61.8584
59987;BME280;46181;51.498;5.392;2024-01-25T15:11:01;102554.7;;;13.38;62.02051
59987;BME280;46181;51.498;5.392;2024-01-25T15:15:31;102551.5;;;13.33;62.24023
59987;BME280;46181;51.498;5.392;2024-01-25T15:20:01;102541.1;;;13.32;62.43164
59987;BME280;46181;51.498;5.392;2024-01-25T15:24:31;102522.2;;;13.31;62.62305
59987;BME280;46181;51.498;5.392;2024-01-25T15:29:01;102517.1;;;13.33;62.73828
59987;BME280;46181;51.498;5.392;2024-01-25T15:33:31;102500.3;;;13.31;62.76953
59987;BME280;46181;51.498;5.392;2024-01-25T15:38:01;102507.2;;;13.28;62.98145
59987;BME280;46181;51.498;5.392;2024-01-25T15:42:31;102510.6;;;13.28;63.16211
59987;BME280;46181;51.498;5.392;2024-01-25T15:47:01;102518.9;;;13.32;63.39355
59987;BME280;46181;51.498;5.392;2024-01-25T15:51:31;102517.7;;;13.34;63.41895
59987;BME280;46181;51.498;5.392;2024-01-25T15:56:06;102522.8;;;13.33;63.64355
59987;BME280;46181;51.498;5.392;2024-01-25T16:00:33;102519;;;13.41;63.66797
59987;BME280;46181;51.498;5.392;2024-01-25T16:05:01;102509.6;;;13.43;63.7041
59987;BME280;46181;51.498;5.392;2024-01-25T16:09:31;102505.8;;;13.47;63.7207
59987;BME280;46181;51.498;5.392;2024-01-25T16:14:01;102510.1;;;13.48;63.6543
59987;BME280;46181;51.498;5.392;2024-01-25T16:18:31;102505;;;13.47;63.68652
59987;BME280;46181;51.498;5.392;2024-01-25T16:23:01;102501.4;;;13.47;63.83398
59987;BME280;46181;51.498;5.392;2024-01-25T16:27:31;102494.5;;;13.5;63.89453
59987;BME280;46181;51.498;5.392;2024-01-25T16:32:01;102484.7;;;13.51;63.99609
59987;BME280;46181;51.498;5.392;2024-01-25T16:36:31;102484.8;;;13.56;64.06055
59987;BME280;46181;51.498;5.392;2024-01-25T16:41:01;102495;;;13.58;64.16699
59987;BME280;46181;51.498;5.392;2024-01-25T16:45:31;102493.4;;;13.63;64.20801
59987;BME280;46181;51.498;5.392;2024-01-25T16:50:01;102493.7;;;13.67;64.20313
59987;BME280;46181;51.498;5.392;2024-01-25T16:54:31;102484;;;13.72;64.20898
59987;BME280;46181;51.498;5.392;2024-01-25T16:59:01;102471.4;;;13.73;64.25684
59987;BME280;46181;51.498;5.392;2024-01-25T17:03:31;102467;;;13.78;64.26465
59987;BME280;46181;51.498;5.392;2024-01-25T17:08:01;102473.7;;;13.8;64.3125
59987;BME280;46181;51.498;5.392;2024-01-25T17:12:31;102470;;;13.85;64.28516
59987;BME280;46181;51.498;5.392;2024-01-25T17:17:01;102476;;;13.87;64.25391
59987;BME280;46181;51.498;5.392;2024-01-25T17:21:31;102475.4;;;13.89;64.29004
59987;BME280;46181;51.498;5.392;2024-01-25T17:26:01;102479.1;;;13.91;64.41895
59987;BME280;46181;51.498;5.392;2024-01-25T17:30:31;102477.8;;;13.94;64.40039
59987;BME280;46181;51.498;5.392;2024-01-25T17:35:01;102477.1;;;13.97;64.43848
59987;BME280;46181;51.498;5.392;2024-01-25T17:39:31;102472.7;;;14.01;64.50195
59987;BME280;46181;51.498;5.392;2024-01-25T17:44:01;102471.2;;;14.04;64.58496
59987;BME280;46181;51.498;5.392;2024-01-25T17:48:31;102467.6;;;14.08;64.56836
59987;BME280;46181;51.498;5.392;2024-01-25T17:53:01;102459.7;;;14.08;64.63672
59987;BME280;46181;51.498;5.392;2024-01-25T17:57:31;102463.9;;;14.09;64.72852
59987;BME280;46181;51.498;5.392;2024-01-25T18:02:01;102461.8;;;14.11;64.77637
59987;BME280;46181;51.498;5.392;2024-01-25T18:06:31;102457.9;;;14.11;64.87793
59987;BME280;46181;51.498;5.392;2024-01-25T18:11:01;102451.5;;;14.1;65.0127
59987;BME280;46181;51.498;5.392;2024-01-25T18:15:31;102452.6;;;14.11;65.17188
59987;BME280;46181;51.498;5.392;2024-01-25T18:20:01;102446.5;;;14.12;65.34375
59987;BME280;46181;51.498;5.392;2024-01-25T18:24:31;102442;;;14.12;65.46875
59987;BME280;46181;51.498;5.392;2024-01-25T18:29:01;102442.5;;;14.14;65.58594
59987;BME280;46181;51.498;5.392;2024-01-25T18:33:31;102433.6;;;14.14;65.71094
59987;BME280;46181;51.498;5.392;2024-01-25T18:38:01;102441;;;14.18;65.77148
59987;BME280;46181;51.498;5.392;2024-01-25T18:42:31;102444.2;;;14.21;65.75488
59987;BME280;46181;51.498;5.392;2024-01-25T18:47:01;102436.7;;;14.23;65.8584
59987;BME280;46181;51.498;5.392;2024-01-25T18:51:31;102436;;;14.27;65.86523
59987;BME280;46181;51.498;5.392;2024-01-25T18:56:02;102433.1;;;14.29;65.94727
59987;BME280;46181;51.498;5.392;2024-01-25T19:00:32;102427.4;;;14.31;65.98438
59987;BME280;46181;51.498;5.392;2024-01-25T19:05:02;102422.9;;;14.32;65.87207
59987;BME280;46181;51.498;5.392;2024-01-25T19:09:32;102418.3;;;14.32;65.90625
59987;BME280;46181;51.498;5.392;2024-01-25T19:14:01;102414.2;;;14.31;65.95996
59987;BME280;46181;51.498;5.392;2024-01-25T19:18:31;102412.5;;;14.31;66.0293
59987;BME280;46181;51.498;5.392;2024-01-25T19:23:01;102401.5;;;14.34;66.10254
59987;BME280;46181;51.498;5.392;2024-01-25T19:27:31;102398.7;;;14.36;66.16016
59987;BME280;46181;51.498;5.392;2024-01-25T19:32:01;102391.1;;;14.38;66.29883
59987;BME280;46181;51.498;5.392;2024-01-25T19:36:31;102388.1;;;14.39;66.31348
59987;BME280;46181;51.498;5.392;2024-01-25T19:41:01;102384.5;;;14.42;66.23926
59987;BME280;46181;51.498;5.392;2024-01-25T19:45:31;102379.9;;;14.44;66.29785
59987;BME280;46181;51.498;5.392;2024-01-25T19:50:01;102375.7;;;14.44;66.38965
59987;BME280;46181;51.498;5.392;2024-01-25T19:54:31;102365.7;;;14.45;66.41309
59987;BME280;46181;51.498;5.392;2024-01-25T19:59:02;102367.8;;;14.47;66.42773
59987;BME280;46181;51.498;5.392;2024-01-25T20:03:32;102358.9;;;14.5;66.4541
59987;BME280;46181;51.498;5.392;2024-01-25T20:08:02;102359.5;;;14.51;66.47852
59987;BME280;46181;51.498;5.392;2024-01-25T20:12:31;102358.1;;;14.51;66.45703
59987;BME280;46181;51.498;5.392;2024-01-25T20:17:01;102365.1;;;14.53;66.49219
59987;BME280;46181;51.498;5.392;2024-01-25T20:21:31;102360.2;;;14.57;66.49805
59987;BME280;46181;51.498;5.392;2024-01-25T20:26:01;102365.3;;;14.59;66.52344
59987;BME280;46181;51.498;5.392;2024-01-25T20:30:31;102353.6;;;14.62;66.59766
59987;BME280;46181;51.498;5.392;2024-01-25T20:35:01;102351.1;;;14.66;66.58105
59987;BME280;46181;51.498;5.392;2024-01-25T20:39:31;102341;;;14.69;66.55078
59987;BME280;46181;51.498;5.392;2024-01-25T20:44:01;102328.5;;;14.68;66.66309
59987;BME280;46181;51.498;5.392;2024-01-25T20:48:31;102331.6;;;14.73;66.60254
59987;BME280;46181;51.498;5.392;2024-01-25T20:53:01;102330.7;;;14.72;66.66992
59987;BME280;46181;51.498;5.392;2024-01-25T20:57:31;102333.1;;;14.74;66.7627
59987;BME280;46181;51.498;5.392;2024-01-25T21:02:02;102338.8;;;14.76;66.83398
59987;BME280;46181;51.498;5.392;2024-01-25T21:06:32;102330.9;;;14.81;66.83105
59987;BME280;46181;51.498;5.392;2024-01-25T21:11:02;102328.5;;;14.84;66.80078
59987;BME280;46181;51.498;5.392;2024-01-25T21:15:32;102322;;;14.87;66.72363
59987;BME280;46181;51.498;5.392;2024-01-25T21:20:01;102313.8;;;14.88;66.79492
59987;BME280;46181;51.498;5.392;2024-01-25T21:24:31;102302.7;;;14.91;66.82129
59987;BME280;46181;51.498;5.392;2024-01-25T21:29:01;102302.8;;;14.94;66.79297
59987;BME280;46181;51.498;5.392;2024-01-25T21:33:31;102307.6;;;14.98;66.78809
59987;BME280;46181;51.498;5.392;2024-01-25T21:38:01;102294.8;;;14.99;66.77832
59987;BME280;46181;51.498;5.392;2024-01-25T21:42:31;102293.2;;;15.02;66.76953
59987;BME280;46181;51.498;5.392;2024-01-25T21:47:01;102297.8;;;15.04;66.71777
59987;BME280;46181;51.498;5.392;2024-01-25T21:51:31;102294.2;;;15.07;66.65332
59987;BME280;46181;51.498;5.392;2024-01-25T21:56:01;102289.1;;;15.1;66.65918
59987;BME280;46181;51.498;5.392;2024-01-25T22:00:31;102293.8;;;15.13;66.58301
59987;BME280;46181;51.498;5.392;2024-01-25T22:05:02;102283.9;;;15.13;66.50293
59987;BME280;46181;51.498;5.392;2024-01-25T22:09:32;102285;;;15.12;66.50293
59987;BME280;46181;51.498;5.392;2024-01-25T22:14:01;102287;;;15.14;66.5625
59987;BME280;46181;51.498;5.392;2024-01-25T22:18:31;102290.9;;;15.17;66.56641
59987;BME280;46181;51.498;5.392;2024-01-25T22:23:01;102289.2;;;15.17;66.52051
59987;BME280;46181;51.498;5.392;2024-01-25T22:27:31;102289.3;;;15.16;66.51953
59987;BME280;46181;51.498;5.392;2024-01-25T22:32:01;102288.8;;;15.16;66.58691
59987;BME280;46181;51.498;5.392;2024-01-25T22:36:31;102293.1;;;15.15;66.56348
59987;BME280;46181;51.498;5.392;2024-01-25T22:41:01;102299.4;;;15.14;66.62988
59987;BME280;46181;51.498;5.392;2024-01-25T22:45:31;102291.1;;;15.15;66.69922
59987;BME280;46181;51.498;5.392;2024-01-25T22:50:01;102281.8;;;15.15;66.71094
59987;BME280;46181;51.498;5.392;2024-01-25T22:54:31;102276.1;;;15.17;66.72461
59987;BME280;46181;51.498;5.392;2024-01-25T22:59:01;102276.1;;;15.2;66.67188
59987;BME280;46181;51.498;5.392;2024-01-25T23:03:31;102275.7;;;15.21;66.62988
59987;BME280;46181;51.498;5.392;2024-01-25T23:08:01;102266.1;;;15.17;66.65723